Hagerman, New Mexico
Current Conditions -  °F | °C
As of 12:51 AM on Friday 19 Dec 2014 (Local Time) from KROW Reporting Station
Clear Clear  
Wind Chill: 39°   Ceiling: Unl
Heat Index: 39°   Visibility: 10mi
Dew Point: 33°   Wind: 3mph
Humidity: 79%   Direction: 290°WNW
Pressure: 30.09"   Gusts: NA
Location:  33.12°N, 104.33°W
Report Text: KROW 190751Z 29003KT 10SM CLR 04/01 A3009 RMK AO2 SLP165 T00390006
Loading
Personal Weather Stations






























Interactive Weather Map New forecast layout! Learn more

10-Day Weather Forecast

Advertisements
Track Severe Weather on mobile